createdAt,value
2022-09-28T00:02:21.842Z,99056.00
2022-09-28T00:04:48.688Z,99064.00
2022-09-28T00:07:15.425Z,99057.00
2022-09-28T00:09:42.135Z,99061.00
2022-09-28T00:12:08.805Z,99056.00
2022-09-28T00:14:35.595Z,99057.00
2022-09-28T00:17:02.299Z,99050.00
2022-09-28T00:19:29.416Z,99055.00
2022-09-28T00:21:56.168Z,99050.00
2022-09-28T00:24:27.341Z,99055.00
2022-09-28T00:26:56.221Z,99047.00
2022-09-28T00:29:31.672Z,99055.00
2022-09-28T00:32:26.591Z,99058.00
2022-09-28T00:34:53.393Z,99052.00
2022-09-28T00:37:20.601Z,99040.00
2022-09-28T00:39:48.626Z,99047.00
2022-09-28T00:42:18.702Z,99041.00
2022-09-28T00:44:58.332Z,99062.00
2022-09-28T00:47:40.954Z,99043.00
2022-09-28T00:50:15.084Z,99041.00
2022-09-28T00:52:53.209Z,99041.00
2022-09-28T00:55:42.728Z,99050.00
2022-09-28T00:58:12.355Z,99053.00
2022-09-28T01:00:42.650Z,99056.00
2022-09-28T01:03:10.032Z,99056.00
2022-09-28T01:05:38.444Z,99057.00
2022-09-28T01:08:05.593Z,99040.00
2022-09-28T01:10:32.418Z,99051.00
2022-09-28T01:12:59.343Z,99042.00
2022-09-28T01:15:28.142Z,99037.00
2022-09-28T01:18:34.997Z,99048.00
2022-09-28T01:21:16.662Z,99030.00
2022-09-28T01:23:49.909Z,99043.00
2022-09-28T01:26:31.690Z,99049.00
2022-09-28T01:29:05.634Z,99043.00
2022-09-28T01:31:35.638Z,99041.00
2022-09-28T01:34:13.754Z,99047.00
2022-09-28T01:36:48.084Z,99043.00
2022-09-28T01:39:18.262Z,99043.00
2022-09-28T01:41:48.559Z,99043.00
2022-09-28T01:44:17.439Z,99037.00
2022-09-28T01:46:49.375Z,99049.00
2022-09-28T01:49:34.230Z,99047.00
2022-09-28T01:52:15.770Z,99041.00
2022-09-28T01:54:50.619Z,99037.00
2022-09-28T01:57:58.262Z,99042.00
2022-09-28T02:00:25.510Z,99039.00
2022-09-28T02:02:56.160Z,99037.00
2022-09-28T02:05:42.574Z,99032.00
2022-09-28T02:08:16.132Z,99041.00
2022-09-28T02:10:48.332Z,99043.00
2022-09-28T02:13:25.660Z,99033.00
2022-09-28T02:16:01.253Z,99034.00
2022-09-28T02:18:28.036Z,99031.00
2022-09-28T02:21:16.054Z,99036.00
2022-09-28T02:23:51.323Z,99028.00
2022-09-28T02:26:20.484Z,99034.00
2022-09-28T02:28:47.187Z,99034.00
2022-09-28T02:31:13.989Z,99029.00
2022-09-28T02:33:42.294Z,99032.00
2022-09-28T02:36:09.503Z,99041.00
2022-09-28T02:38:36.851Z,99038.00
2022-09-28T02:41:13.518Z,99040.00
2022-09-28T02:43:58.990Z,99029.00
2022-09-28T02:46:58.854Z,99038.00
2022-09-28T02:49:43.858Z,99041.00
2022-09-28T02:52:28.739Z,99038.00
2022-09-28T02:55:33.015Z,99039.00
2022-09-28T02:58:19.522Z,99047.00
2022-09-28T03:01:03.544Z,99041.00
2022-09-28T03:03:38.846Z,99032.00
2022-09-28T03:06:14.909Z,99035.00
2022-09-28T03:08:52.248Z,99031.00
2022-09-28T03:11:28.759Z,99031.00
2022-09-28T03:13:56.113Z,99030.00
2022-09-28T03:16:22.955Z,99027.00
2022-09-28T03:18:49.761Z,99025.00
2022-09-28T03:21:16.491Z,99027.00
2022-09-28T03:23:43.606Z,99029.00
2022-09-28T03:26:13.950Z,99027.00
2022-09-28T03:28:40.893Z,99027.00
2022-09-28T03:31:07.750Z,99033.00
2022-09-28T03:33:34.510Z,99035.00
2022-09-28T03:36:01.457Z,99035.00
2022-09-28T03:38:28.190Z,99031.00
2022-09-28T03:40:56.700Z,99035.00
2022-09-28T03:43:24.464Z,99030.00
2022-09-28T03:45:55.390Z,99031.00
2022-09-28T03:48:27.611Z,99030.00
2022-09-28T03:50:58.534Z,99036.00
2022-09-28T03:53:25.521Z,99034.00
2022-09-28T03:55:55.671Z,99034.00
2022-09-28T03:58:22.890Z,99034.00
2022-09-28T04:00:50.116Z,99024.00
2022-09-28T04:03:16.948Z,99022.00
2022-09-28T04:05:51.364Z,99035.00
2022-09-28T04:08:19.117Z,99035.00
2022-09-28T04:10:45.981Z,99028.00
2022-09-28T04:13:12.886Z,99036.00
2022-09-28T04:15:39.676Z,99036.00
2022-09-28T04:18:11.237Z,99025.00
2022-09-28T04:20:40.020Z,99024.00
2022-09-28T04:23:06.895Z,99026.00
2022-09-28T04:25:33.585Z,99016.00
2022-09-28T04:28:18.911Z,99016.00
2022-09-28T04:30:47.285Z,99025.00
2022-09-28T04:33:14.059Z,99025.00
2022-09-28T04:35:40.838Z,99027.00
2022-09-28T04:38:07.629Z,99028.00
2022-09-28T04:40:34.378Z,99022.00
2022-09-28T04:43:01.135Z,99016.00
2022-09-28T04:45:28.545Z,99016.00
2022-09-28T04:47:55.320Z,99023.00
2022-09-28T04:50:22.028Z,99023.00
2022-09-28T04:52:48.811Z,99021.00
2022-09-28T04:55:15.969Z,99014.00
2022-09-28T04:57:42.650Z,99022.00
2022-09-28T05:00:10.616Z,99015.00
2022-09-28T05:02:37.453Z,99004.00
2022-09-28T05:05:04.496Z,99021.00
2022-09-28T05:07:31.325Z,99012.00
2022-09-28T05:09:58.055Z,99018.00
2022-09-28T05:12:24.807Z,99021.00
2022-09-28T05:14:51.528Z,99020.00
2022-09-28T05:17:18.224Z,99017.00
2022-09-28T05:19:44.934Z,99019.00
2022-09-28T05:22:14.768Z,99015.00
2022-09-28T05:24:41.665Z,99011.00
2022-09-28T05:27:08.634Z,99012.00
2022-09-28T05:29:35.424Z,99013.00
2022-09-28T05:32:02.305Z,99008.00
2022-09-28T05:34:29.269Z,99014.00
2022-09-28T05:36:55.992Z,99009.00
2022-09-28T05:39:22.682Z,99019.00
2022-09-28T05:41:49.433Z,99011.00
2022-09-28T05:44:16.181Z,99014.00
2022-09-28T05:46:42.953Z,99020.00
2022-09-28T05:49:09.675Z,99015.00
2022-09-28T05:51:36.388Z,99006.00
2022-09-28T05:54:05.871Z,99013.00
2022-09-28T05:56:32.995Z,99012.00
2022-09-28T05:58:59.801Z,99011.00
2022-09-28T06:01:26.678Z,99013.00
2022-09-28T06:03:53.444Z,99013.00
2022-09-28T06:06:20.486Z,99022.00
2022-09-28T06:08:48.385Z,99029.00
2022-09-28T06:11:15.144Z,99021.00
2022-09-28T06:13:41.902Z,99025.00
2022-09-28T06:16:10.485Z,99025.00
2022-09-28T06:18:37.270Z,99028.00
2022-09-28T06:21:05.819Z,99032.00
2022-09-28T06:23:32.538Z,99032.00
2022-09-28T06:26:00.076Z,99023.00
2022-09-28T06:28:26.939Z,99026.00
2022-09-28T06:30:54.123Z,99032.00
2022-09-28T06:33:21.819Z,99035.00
2022-09-28T06:35:48.559Z,99025.00
2022-09-28T06:38:15.257Z,99039.00
2022-09-28T06:40:42.093Z,99035.00
2022-09-28T06:43:15.038Z,99044.00
2022-09-28T06:45:43.141Z,99039.00
2022-09-28T06:48:11.101Z,99041.00
2022-09-28T06:50:40.686Z,99041.00
2022-09-28T06:53:09.546Z,99056.00
2022-09-28T06:55:39.776Z,99058.00
2022-09-28T06:58:09.785Z,99057.00
2022-09-28T07:00:37.550Z,99064.00
2022-09-28T07:03:06.304Z,99076.00
2022-09-28T07:05:36.634Z,99076.00
2022-09-28T07:08:04.666Z,99068.00
2022-09-28T07:10:32.060Z,99068.00
2022-09-28T07:13:02.618Z,99078.00
2022-09-28T07:15:29.922Z,99083.00
2022-09-28T07:18:03.460Z,99093.00
2022-09-28T07:20:34.170Z,99088.00
2022-09-28T07:23:17.300Z,99096.00
2022-09-28T07:25:47.779Z,99098.00
2022-09-28T07:28:15.269Z,99096.00
2022-09-28T07:30:44.579Z,99101.00
2022-09-28T07:33:14.398Z,99104.00
2022-09-28T07:35:44.643Z,99101.00
2022-09-28T07:38:11.385Z,99107.00
2022-09-28T07:40:56.868Z,99103.00
2022-09-28T07:43:23.959Z,99106.00
2022-09-28T07:45:52.621Z,99101.00
2022-09-28T07:48:20.137Z,99112.00
2022-09-28T07:50:55.305Z,99106.00
2022-09-28T07:53:24.250Z,99107.00
2022-09-28T07:56:06.203Z,99115.00
2022-09-28T07:58:34.866Z,99117.00
2022-09-28T08:01:07.097Z,99113.00
2022-09-28T08:03:35.244Z,99116.00
2022-09-28T08:06:04.173Z,99118.00
2022-09-28T08:08:31.614Z,99122.00
2022-09-28T08:10:58.777Z,99122.00
2022-09-28T08:13:27.136Z,99115.00
2022-09-28T08:15:54.800Z,99131.00
2022-09-28T08:18:23.326Z,99125.00
2022-09-28T08:21:11.318Z,99143.00
2022-09-28T08:23:38.398Z,99140.00
2022-09-28T08:26:05.541Z,99135.00
2022-09-28T08:28:32.352Z,99138.00
2022-09-28T08:31:01.466Z,99139.00
2022-09-28T08:33:28.627Z,99131.00
2022-09-28T08:35:57.778Z,99141.00
2022-09-28T08:38:26.638Z,99136.00
2022-09-28T08:41:24.280Z,99137.00
2022-09-28T08:44:11.422Z,99135.00
2022-09-28T08:46:46.601Z,99145.00
2022-09-28T08:49:25.294Z,99146.00
2022-09-28T08:52:09.452Z,99155.00
2022-09-28T08:54:39.212Z,99166.00
2022-09-28T08:57:07.629Z,99167.00
2022-09-28T08:59:45.331Z,99166.00
2022-09-28T09:02:22.380Z,99165.00
2022-09-28T09:04:51.973Z,99170.00
2022-09-28T09:08:00.174Z,99182.00
2022-09-28T09:10:47.229Z,99195.00
2022-09-28T09:13:43.041Z,99175.00
2022-09-28T09:16:49.305Z,99163.00
2022-09-28T09:19:22.738Z,99171.00
2022-09-28T09:22:11.700Z,99164.00
2022-09-28T09:24:54.832Z,99160.00
2022-09-28T09:27:40.120Z,99167.00
2022-09-28T09:30:11.441Z,99159.00
2022-09-28T09:32:58.035Z,99157.00
2022-09-28T09:35:54.992Z,99161.00
2022-09-28T09:38:45.598Z,99155.00
2022-09-28T09:41:30.415Z,99147.00
2022-09-28T09:44:02.987Z,99144.00
2022-09-28T09:46:37.650Z,99151.00
2022-09-28T09:49:14.478Z,99158.00
2022-09-28T09:52:12.595Z,99158.00
2022-09-28T09:54:44.548Z,99150.00
2022-09-28T09:57:18.759Z,99157.00
2022-09-28T09:59:45.768Z,99167.00
2022-09-28T10:02:19.195Z,99154.00
2022-09-28T10:04:47.798Z,99161.00
2022-09-28T10:07:34.744Z,99189.00
2022-09-28T10:10:02.275Z,99183.00
2022-09-28T10:12:29.341Z,99188.00
2022-09-28T10:14:56.055Z,99201.00
2022-09-28T10:17:27.251Z,99193.00
2022-09-28T10:19:56.741Z,99186.00
2022-09-28T10:22:26.116Z,99197.00
2022-09-28T10:24:57.604Z,99195.00
2022-09-28T10:27:35.745Z,99212.00
2022-09-28T10:30:16.922Z,99208.00
2022-09-28T10:32:48.796Z,99191.00
2022-09-28T10:35:18.583Z,99188.00
2022-09-28T10:37:55.099Z,99192.00
2022-09-28T10:40:44.748Z,99194.00
2022-09-28T10:43:33.459Z,99165.00
2022-09-28T10:46:09.192Z,99187.00
2022-09-28T10:48:50.625Z,99176.00
2022-09-28T10:51:17.382Z,99165.00
2022-09-28T10:54:01.489Z,99147.00
2022-09-28T10:56:30.089Z,99159.00
2022-09-28T10:58:57.960Z,99161.00
2022-09-28T11:01:31.199Z,99159.00
2022-09-28T11:04:03.507Z,99184.00
2022-09-28T11:06:32.917Z,99185.00
2022-09-28T11:09:05.557Z,99185.00
2022-09-28T11:11:40.698Z,99177.00
2022-09-28T11:14:27.608Z,99166.00
2022-09-28T11:17:27.589Z,99156.00
2022-09-28T11:19:55.512Z,99176.00
2022-09-28T11:22:51.640Z,99190.00
2022-09-28T11:25:21.243Z,99184.00
2022-09-28T11:27:51.003Z,99183.00
2022-09-28T11:30:49.909Z,99180.00
2022-09-28T11:33:32.972Z,99186.00
2022-09-28T11:36:08.276Z,99201.00
2022-09-28T11:39:19.134Z,99200.00
2022-09-28T11:41:51.835Z,99187.00
2022-09-28T11:44:32.688Z,99198.00
2022-09-28T11:47:42.416Z,99200.00
2022-09-28T11:50:25.789Z,99191.00
2022-09-28T11:53:10.787Z,99195.00
2022-09-28T11:56:09.027Z,99203.00
2022-09-28T11:58:48.110Z,99208.00
2022-09-28T12:01:47.968Z,99211.00
2022-09-28T12:04:38.027Z,99208.00
2022-09-28T12:07:16.529Z,99217.00
2022-09-28T12:09:47.793Z,99225.00
2022-09-28T12:12:35.439Z,99229.00
2022-09-28T12:15:42.234Z,99223.00
2022-09-28T12:18:41.069Z,99264.00
2022-09-28T12:21:28.187Z,99248.00
2022-09-28T12:24:00.637Z,99232.00
2022-09-28T12:26:47.119Z,99235.00
2022-09-28T12:29:22.643Z,99248.00
2022-09-28T12:32:12.864Z,99263.00
2022-09-28T12:34:42.307Z,99259.00
2022-09-28T12:37:18.074Z,99274.00
2022-09-28T12:39:57.993Z,99245.00
2022-09-28T12:43:00.825Z,99257.00
2022-09-28T12:46:06.631Z,99268.00
2022-09-28T12:49:33.205Z,99289.00
2022-09-28T12:51:49.313Z,99285.00
2022-09-28T12:54:46.835Z,99295.00
2022-09-28T12:57:51.069Z,99292.00
2022-09-28T13:00:22.784Z,99305.00
2022-09-28T13:03:08.271Z,99300.00
2022-09-28T13:06:09.955Z,99307.00
2022-09-28T13:08:59.957Z,99328.00
2022-09-28T13:12:14.617Z,99328.00
2022-09-28T13:15:16.452Z,99325.00
2022-09-28T13:17:43.079Z,99298.00
2022-09-28T13:20:31.241Z,99265.00
2022-09-28T13:23:23.697Z,99237.00
2022-09-28T13:25:58.390Z,99284.00
2022-09-28T13:28:27.357Z,99268.00
2022-09-28T13:30:55.952Z,99289.00
2022-09-28T13:33:49.247Z,99276.00
2022-09-28T13:36:36.378Z,99307.00
2022-09-28T13:39:03.394Z,99321.00
2022-09-28T13:41:35.572Z,99315.00
2022-09-28T13:44:13.103Z,99305.00
2022-09-28T13:46:58.205Z,99306.00
2022-09-28T13:49:27.041Z,99291.00
2022-09-28T13:52:12.261Z,99267.00
2022-09-28T13:54:46.080Z,99326.00
2022-09-28T13:57:37.272Z,99273.00
2022-09-28T14:00:47.049Z,99275.00
2022-09-28T14:03:51.584Z,99298.00
2022-09-28T14:06:22.767Z,99313.00
2022-09-28T14:09:09.908Z,99318.00
2022-09-28T14:11:36.825Z,99334.00
2022-09-28T14:14:14.012Z,99305.00
2022-09-28T14:16:41.898Z,99278.00
2022-09-28T14:19:20.415Z,99269.00
2022-09-28T14:21:47.066Z,99276.00
2022-09-28T14:24:34.381Z,99280.00
2022-09-28T14:27:23.664Z,99256.00
2022-09-28T14:30:07.126Z,99273.00
2022-09-28T14:32:38.266Z,99282.00
2022-09-28T14:35:27.535Z,99269.00
2022-09-28T14:38:17.882Z,99261.00
2022-09-28T14:41:18.014Z,99265.00
2022-09-28T14:43:44.652Z,99286.00
2022-09-28T14:46:11.480Z,99276.00
2022-09-28T14:48:50.295Z,99271.00
2022-09-28T14:51:43.342Z,99244.00
2022-09-28T14:54:10.493Z,99226.00
2022-09-28T14:56:40.262Z,99229.00
2022-09-28T14:59:12.888Z,99213.00
2022-09-28T15:01:39.832Z,99233.00
2022-09-28T15:04:10.008Z,99222.00
2022-09-28T15:06:50.702Z,99211.00
2022-09-28T15:09:30.663Z,99247.00
2022-09-28T15:12:14.434Z,99228.00
2022-09-28T15:15:02.713Z,99262.00
2022-09-28T15:17:39.996Z,99259.00
2022-09-28T15:20:24.342Z,99251.00
2022-09-28T15:22:57.276Z,99265.00
2022-09-28T15:25:29.551Z,99271.00
2022-09-28T15:28:03.442Z,99288.00
2022-09-28T15:30:32.070Z,99281.00
2022-09-28T15:33:19.132Z,99279.00
2022-09-28T15:36:06.648Z,99269.00
2022-09-28T15:38:34.771Z,99257.00
2022-09-28T15:41:05.324Z,99275.00
2022-09-28T15:43:33.647Z,99271.00
2022-09-28T15:46:21.082Z,99255.00
2022-09-28T15:49:01.501Z,99275.00
2022-09-28T15:51:29.371Z,99276.00
2022-09-28T15:54:17.776Z,99271.00
2022-09-28T15:57:02.414Z,99289.00
2022-09-28T15:59:34.973Z,99271.00
2022-09-28T16:02:19.010Z,99275.00
2022-09-28T16:04:48.107Z,99282.00
2022-09-28T16:07:20.075Z,99293.00
2022-09-28T16:10:14.237Z,99281.00
2022-09-28T16:12:48.520Z,99273.00
2022-09-28T16:15:25.775Z,99288.00
2022-09-28T16:17:56.566Z,99278.00
2022-09-28T16:20:32.420Z,99271.00
2022-09-28T16:23:05.800Z,99268.00
2022-09-28T16:25:37.444Z,99265.00
2022-09-28T16:28:04.768Z,99260.00
2022-09-28T16:30:33.234Z,99248.00
2022-09-28T16:33:37.800Z,99254.00
2022-09-28T16:36:05.167Z,99255.00
2022-09-28T16:38:32.373Z,99253.00
2022-09-28T16:41:01.958Z,99245.00
2022-09-28T16:43:30.180Z,99240.00
2022-09-28T16:45:59.260Z,99246.00
2022-09-28T16:48:27.452Z,99249.00
2022-09-28T16:50:54.560Z,99241.00
2022-09-28T16:53:40.153Z,99250.00
2022-09-28T16:56:07.228Z,99246.00
2022-09-28T16:58:34.214Z,99251.00
2022-09-28T17:01:01.121Z,99251.00
2022-09-28T17:03:28.669Z,99245.00
2022-09-28T17:05:56.072Z,99256.00
2022-09-28T17:08:24.219Z,99258.00
2022-09-28T17:11:19.249Z,99256.00
2022-09-28T17:13:47.356Z,99258.00
2022-09-28T17:16:49.429Z,99264.00
2022-09-28T17:19:27.357Z,99262.00
2022-09-28T17:21:54.066Z,99269.00
2022-09-28T17:24:21.343Z,99267.00
2022-09-28T17:26:50.799Z,99271.00
2022-09-28T17:29:18.517Z,99283.00
2022-09-28T17:31:46.690Z,99285.00
2022-09-28T17:34:16.071Z,99282.00
2022-09-28T17:36:43.604Z,99286.00
2022-09-28T17:39:12.715Z,99286.00
2022-09-28T17:41:40.225Z,99285.00
2022-09-28T17:44:07.014Z,99288.00
2022-09-28T17:46:36.627Z,99292.00
2022-09-28T17:49:05.622Z,99295.00
2022-09-28T17:51:34.753Z,99294.00
2022-09-28T17:54:01.892Z,99294.00
2022-09-28T17:56:32.229Z,99296.00
2022-09-28T17:59:05.480Z,99289.00
2022-09-28T18:01:35.522Z,99298.00
2022-09-28T18:04:04.082Z,99292.00
2022-09-28T18:06:35.038Z,99312.00
2022-09-28T18:09:05.223Z,99308.00
2022-09-28T18:11:32.814Z,99310.00
2022-09-28T18:13:59.631Z,99315.00
2022-09-28T18:16:28.530Z,99311.00
2022-09-28T18:18:55.277Z,99318.00
2022-09-28T18:21:21.995Z,99311.00
2022-09-28T18:23:48.725Z,99327.00
2022-09-28T18:26:18.956Z,99326.00
2022-09-28T18:28:46.690Z,99326.00
2022-09-28T18:31:15.018Z,99333.00
2022-09-28T18:33:41.834Z,99345.00
2022-09-28T18:36:08.588Z,99336.00
2022-09-28T18:38:36.482Z,99341.00
2022-09-28T18:41:16.723Z,99342.00
2022-09-28T18:43:49.047Z,99342.00
2022-09-28T18:46:17.569Z,99349.00
2022-09-28T18:48:44.331Z,99346.00
2022-09-28T18:51:12.257Z,99343.00
2022-09-28T18:53:39.749Z,99355.00
2022-09-28T18:56:08.235Z,99367.00
2022-09-28T18:58:36.110Z,99363.00
2022-09-28T19:01:29.546Z,99364.00
2022-09-28T19:04:01.983Z,99363.00
2022-09-28T19:06:28.844Z,99363.00
2022-09-28T19:08:56.517Z,99375.00
2022-09-28T19:11:23.911Z,99372.00
2022-09-28T19:13:50.641Z,99362.00
2022-09-28T19:16:23.968Z,99377.00
2022-09-28T19:18:52.419Z,99387.00
2022-09-28T19:21:19.529Z,99369.00
2022-09-28T19:23:49.324Z,99374.00
2022-09-28T19:26:19.186Z,99382.00
2022-09-28T19:28:45.909Z,99382.00
2022-09-28T19:31:13.206Z,99381.00
2022-09-28T19:33:41.018Z,99380.00
2022-09-28T19:36:10.284Z,99379.00
2022-09-28T19:38:38.407Z,99388.00
2022-09-28T19:41:39.621Z,99390.00
2022-09-28T19:44:27.962Z,99390.00
2022-09-28T19:47:09.880Z,99374.00
2022-09-28T19:49:39.222Z,99372.00
2022-09-28T19:52:13.776Z,99385.00
2022-09-28T19:54:57.852Z,99391.00
2022-09-28T19:57:27.830Z,99396.00
2022-09-28T19:59:59.218Z,99388.00
2022-09-28T20:02:28.977Z,99393.00
2022-09-28T20:04:56.185Z,99399.00
2022-09-28T20:07:22.968Z,99391.00
2022-09-28T20:09:49.847Z,99403.00
2022-09-28T20:12:16.658Z,99402.00
2022-09-28T20:14:43.710Z,99395.00
2022-09-28T20:17:10.536Z,99390.00
2022-09-28T20:19:37.627Z,99400.00
2022-09-28T20:22:04.370Z,99397.00
2022-09-28T20:24:31.905Z,99410.00
2022-09-28T20:26:59.052Z,99406.00
2022-09-28T20:29:26.671Z,99405.00
2022-09-28T20:31:53.562Z,99411.00
2022-09-28T20:34:20.300Z,99402.00
2022-09-28T20:36:47.138Z,99410.00
2022-09-28T20:39:14.048Z,99408.00
2022-09-28T20:41:41.051Z,99420.00
2022-09-28T20:44:07.860Z,99420.00
2022-09-28T20:46:35.600Z,99409.00
2022-09-28T20:49:03.234Z,99410.00
2022-09-28T20:51:30.288Z,99416.00
2022-09-28T20:53:58.177Z,99416.00
2022-09-28T20:56:27.024Z,99424.00
2022-09-28T20:58:54.294Z,99414.00
2022-09-28T21:01:34.601Z,99422.00
2022-09-28T21:04:06.153Z,99422.00
2022-09-28T21:06:38.062Z,99415.00
2022-09-28T21:09:06.171Z,99418.00
2022-09-28T21:11:35.410Z,99423.00
2022-09-28T21:14:03.868Z,99419.00
2022-09-28T21:16:32.902Z,99414.00
2022-09-28T21:19:02.642Z,99419.00
2022-09-28T21:21:29.354Z,99426.00
2022-09-28T21:23:57.310Z,99435.00
2022-09-28T21:26:26.968Z,99440.00
2022-09-28T21:28:53.871Z,99437.00
2022-09-28T21:31:26.229Z,99442.00
2022-09-28T21:33:55.883Z,99429.00
2022-09-28T21:36:22.558Z,99436.00
2022-09-28T21:38:49.384Z,99430.00
2022-09-28T21:41:16.382Z,99433.00
2022-09-28T21:43:43.277Z,99437.00
2022-09-28T21:46:10.118Z,99435.00
2022-09-28T21:48:36.918Z,99443.00
2022-09-28T21:51:06.159Z,99435.00
2022-09-28T21:53:38.303Z,99437.00
2022-09-28T21:56:06.630Z,99432.00
2022-09-28T21:58:35.601Z,99448.00
2022-09-28T22:01:14.674Z,99451.00
2022-09-28T22:03:43.176Z,99453.00
2022-09-28T22:06:10.456Z,99457.00
2022-09-28T22:08:37.783Z,99451.00
2022-09-28T22:11:08.444Z,99450.00
2022-09-28T22:13:40.406Z,99453.00
2022-09-28T22:16:08.237Z,99455.00
2022-09-28T22:18:35.164Z,99451.00
2022-09-28T22:21:11.956Z,99447.00
2022-09-28T22:23:39.732Z,99454.00
2022-09-28T22:26:19.058Z,99451.00
2022-09-28T22:28:47.819Z,99455.00
2022-09-28T22:31:15.386Z,99464.00
2022-09-28T22:33:42.166Z,99458.00
2022-09-28T22:36:08.957Z,99459.00
2022-09-28T22:38:35.868Z,99467.00
2022-09-28T22:41:03.816Z,99449.00
2022-09-28T22:43:30.652Z,99466.00
2022-09-28T22:46:18.092Z,99459.00
2022-09-28T22:48:49.301Z,99466.00
2022-09-28T22:51:16.726Z,99456.00
2022-09-28T22:53:43.878Z,99457.00
2022-09-28T22:56:14.615Z,99460.00
2022-09-28T22:58:44.310Z,99462.00
2022-09-28T23:01:17.648Z,99469.00
2022-09-28T23:03:44.903Z,99470.00
2022-09-28T23:06:13.536Z,99481.00
2022-09-28T23:08:40.294Z,99477.00
2022-09-28T23:11:07.267Z,99474.00
2022-09-28T23:13:35.027Z,99474.00
2022-09-28T23:16:07.015Z,99473.00
2022-09-28T23:18:36.051Z,99473.00
2022-09-28T23:21:05.313Z,99471.00
2022-09-28T23:23:32.585Z,99466.00
2022-09-28T23:25:59.978Z,99466.00
2022-09-28T23:28:27.112Z,99463.00
2022-09-28T23:30:53.963Z,99462.00
2022-09-28T23:33:21.468Z,99465.00
2022-09-28T23:35:48.208Z,99461.00
2022-09-28T23:38:17.881Z,99454.00
2022-09-28T23:40:46.283Z,99459.00
2022-09-28T23:43:13.743Z,99457.00
2022-09-28T23:45:42.611Z,99466.00
2022-09-28T23:48:09.358Z,99463.00
2022-09-28T23:50:36.068Z,99462.00
2022-09-28T23:53:02.771Z,99464.00
2022-09-28T23:55:29.468Z,99458.00
2022-09-28T23:57:56.699Z,99455.00
